Time;durP1;ratioP1;P1;durP2;ratioP2;P2;SDS_P1;SDS_P2;PMS_P1;PMS_P2;Temp;Humidity;BMP_temperature;BMP_pressure;BME280_temperature;BME280_humidity;BME280_pressure;Samples;Min_cycle;Max_cycle;Signal;HPM_P1;HPM_P2
2022/01/03 00:01:35;;;;;;;8.00;5.40;;;9.40;99.90;;;;;;4978728;28;20647;-70
2022/01/03 00:04:02;;;;;;;11.25;5.97;;;9.30;99.90;;;;;;4982075;28;20437;-73
2022/01/03 00:06:29;;;;;;;10.95;6.18;;;9.30;99.90;;;;;;4978272;28;20065;-73
2022/01/03 00:08:57;;;;;;;10.27;5.95;;;9.30;99.90;;;;;;4962930;28;20737;-74
2022/01/03 00:11:23;;;;;;;13.63;5.78;;;9.30;99.90;;;;;;5012435;23;20054;-76
2022/01/03 00:13:51;;;;;;;8.70;5.50;;;9.30;99.90;;;;;;5009696;28;20046;-76
2022/01/03 00:16:19;;;;;;;11.63;7.28;;;9.30;99.90;;;;;;4998850;28;20085;-76
2022/01/03 00:18:46;;;;;;;10.20;6.32;;;9.30;99.90;;;;;;5000125;28;20323;-76
2022/01/03 00:21:18;;;;;;;14.02;6.38;;;9.30;99.90;;;;;;4983859;28;20104;-76
2022/01/03 00:23:55;;;;;;;15.13;6.32;;;9.30;99.90;;;;;;4985263;28;20073;-76
2022/01/03 00:26:26;;;;;;;9.65;6.07;;;9.30;99.90;;;;;;4984101;28;20046;-76
2022/01/03 00:28:59;;;;;;;12.20;6.72;;;9.20;99.90;;;;;;4983822;28;20061;-77
2022/01/03 00:31:38;;;;;;;14.27;5.60;;;9.20;99.90;;;;;;4984408;28;20573;-76
2022/01/03 00:34:06;;;;;;;13.00;5.60;;;9.20;99.90;;;;;;5000199;28;20329;-76
2022/01/03 00:36:34;;;;;;;13.43;5.90;;;9.20;99.90;;;;;;4984506;28;20077;-76
2022/01/03 00:39:04;;;;;;;15.18;5.00;;;9.10;99.90;;;;;;4983056;28;20574;-76
2022/01/03 00:41:31;;;;;;;8.93;4.75;;;9.10;99.90;;;;;;4995585;28;20588;-77
2022/01/03 00:43:58;;;;;;;12.30;5.32;;;9.10;99.90;;;;;;5003284;28;20572;-76
2022/01/03 00:46:26;;;;;;;11.00;6.07;;;9.10;99.90;;;;;;4992734;28;20112;-76
2022/01/03 00:48:54;;;;;;;10.35;5.40;;;9.10;99.90;;;;;;4974542;28;20514;-76
2022/01/03 00:51:21;;;;;;;12.43;5.18;;;9.10;99.90;;;;;;4982638;28;20116;-77
2022/01/03 00:53:49;;;;;;;14.27;6.03;;;9.10;99.90;;;;;;4983569;28;20062;-76
2022/01/03 00:56:24;;;;;;;9.93;5.53;;;9.10;99.90;;;;;;4983114;28;20070;-77
2022/01/03 00:59:17;;;;;;;8.27;6.45;;;9.10;99.90;;;;;;5000685;28;20058;-77
2022/01/03 01:01:51;;;;;;;11.70;6.72;;;9.20;99.90;;;;;;4994145;28;20054;-77
2022/01/03 01:04:21;;;;;;;15.68;5.97;;;9.10;99.90;;;;;;5003121;28;20161;-77
2022/01/03 01:06:55;;;;;;;12.27;5.75;;;9.10;99.90;;;;;;5002965;28;20050;-77
2022/01/03 01:09:24;;;;;;;11.98;5.20;;;9.00;99.90;;;;;;5013960;28;20572;-77
2022/01/03 01:11:54;;;;;;;14.38;6.05;;;9.00;99.90;;;;;;4985995;28;20073;-77
2022/01/03 01:14:26;;;;;;;11.73;5.47;;;9.00;99.90;;;;;;4983173;28;20105;-77
2022/01/03 01:16:54;;;;;;;10.80;4.57;;;9.00;99.90;;;;;;4981838;28;20053;-76
2022/01/03 01:19:21;;;;;;;8.05;5.05;;;9.00;99.90;;;;;;4980242;28;20046;-76
2022/01/03 01:21:52;;;;;;;7.95;4.13;;;9.00;99.90;;;;;;4982337;28;20074;-76
2022/01/03 01:24:22;;;;;;;12.63;4.25;;;8.90;99.90;;;;;;4981424;28;20077;-76
2022/01/03 01:29:39;;;;;;;15.05;7.40;;;8.70;99.90;;;;;;4982733;28;20104;-74
2022/01/03 01:32:12;;;;;;;13.50;6.13;;;8.50;99.90;;;;;;4998411;28;20142;-74
2022/01/03 01:34:43;;;;;;;15.75;7.68;;;8.40;99.90;;;;;;4981847;28;20088;-74
2022/01/03 01:37:16;;;;;;;14.00;6.07;;;8.30;99.90;;;;;;5018007;28;20478;-74
2022/01/03 01:39:43;;;;;;;11.98;6.18;;;8.30;99.90;;;;;;5003503;28;20053;-74
2022/01/03 01:42:15;;;;;;;19.02;6.95;;;8.20;99.90;;;;;;4967430;28;20057;-74
2022/01/03 01:44:48;;;;;;;12.13;4.93;;;8.10;99.90;;;;;;4982870;28;20054;-74
2022/01/03 01:47:17;;;;;;;13.23;5.70;;;8.00;99.90;;;;;;4980262;28;20074;-74
2022/01/03 01:49:46;;;;;;;13.45;7.07;;;7.90;99.90;;;;;;4970702;28;20401;-74
2022/01/03 01:52:19;;;;;;;19.00;10.63;;;7.90;99.90;;;;;;4985727;28;20081;-74
2022/01/03 01:54:56;;;;;;;27.13;10.75;;;8.00;99.90;;;;;;4983016;28;20042;-75
2022/01/03 01:57:55;;;;;;;26.48;10.95;;;8.00;99.90;;;;;;5019297;28;20530;-75
2022/01/03 02:00:30;;;;;;;23.67;10.40;;;8.00;99.90;;;;;;5010763;28;20160;-74
2022/01/03 02:03:19;;;;;;;17.60;10.25;;;8.00;99.90;;;;;;4977602;28;20058;-74
2022/01/03 02:06:27;;;;;;;24.80;10.23;;;8.10;99.90;;;;;;4982547;28;20050;-75
2022/01/03 02:09:06;;;;;;;23.05;11.10;;;8.20;99.90;;;;;;4977096;28;20054;-74
2022/01/03 02:11:51;;;;;;;23.15;10.82;;;8.20;99.90;;;;;;4989519;28;20368;-74
2022/01/03 02:14:23;;;;;;;27.80;10.85;;;8.20;99.90;;;;;;4981661;28;20398;-74
2022/01/03 02:16:53;;;;;;;27.23;12.27;;;8.20;99.90;;;;;;5002515;28;20042;-74
2022/01/03 02:19:21;;;;;;;28.88;11.68;;;8.20;99.90;;;;;;4997742;28;20379;-74
2022/01/03 02:21:48;;;;;;;31.13;12.57;;;8.00;99.90;;;;;;4991489;28;20054;-74
2022/01/03 02:24:21;;;;;;;27.58;13.27;;;8.00;99.90;;;;;;4980309;28;20557;-74
2022/01/03 02:26:48;;;;;;;30.52;14.15;;;8.00;99.90;;;;;;4981148;28;20092;-74
2022/01/03 02:29:14;;;;;;;28.70;13.00;;;8.10;99.90;;;;;;4996972;28;20140;-74
2022/01/03 02:31:41;;;;;;;30.77;13.75;;;8.10;99.90;;;;;;4980555;28;20611;-74
2022/01/03 02:34:08;;;;;;;23.85;11.73;;;8.10;99.90;;;;;;4981696;28;20530;-75
2022/01/03 02:36:36;;;;;;;31.15;11.68;;;8.20;99.90;;;;;;4995039;28;20058;-74
2022/01/03 02:39:04;;;;;;;25.35;12.85;;;8.10;99.90;;;;;;4980561;28;20072;-75
2022/01/03 02:41:31;;;;;;;28.33;13.55;;;8.10;99.90;;;;;;4980551;28;20053;-75
2022/01/03 02:43:59;;;;;;;36.42;12.73;;;8.20;99.90;;;;;;4990128;28;20593;-75
2022/01/03 02:46:27;;;;;;;28.10;12.18;;;8.20;99.90;;;;;;4988422;28;20122;-75
2022/01/03 02:48:54;;;;;;;31.10;12.23;;;8.20;99.90;;;;;;4980533;28;20652;-75
2022/01/03 02:51:21;;;;;;;30.17;10.00;;;8.10;99.90;;;;;;4964118;28;20050;-75
2022/01/03 02:53:48;;;;;;;24.35;11.25;;;8.10;99.90;;;;;;4979110;28;20088;-75
2022/01/03 02:56:14;;;;;;;25.25;9.95;;;8.20;99.90;;;;;;4978988;28;20052;-75
2022/01/03 02:58:41;;;;;;;38.13;12.50;;;8.10;99.90;;;;;;4964556;28;20056;-75
2022/01/03 03:01:09;;;;;;;32.80;12.02;;;8.10;99.90;;;;;;4964614;28;20054;-75
2022/01/03 03:03:47;;;;;;;29.55;11.65;;;8.10;99.90;;;;;;4980556;28;20042;-75
2022/01/03 03:06:14;;;;;;;23.58;10.32;;;8.10;99.90;;;;;;4980108;28;20054;-75
2022/01/03 03:08:41;;;;;;;30.08;11.25;;;8.10;99.90;;;;;;4995881;28;20054;-75
2022/01/03 03:11:08;;;;;;;23.67;9.70;;;8.10;99.90;;;;;;4964045;28;20050;-74
2022/01/03 03:13:36;;;;;;;23.77;10.55;;;8.10;99.90;;;;;;4979626;28;20133;-75
2022/01/03 03:16:04;;;;;;;31.45;9.55;;;8.10;99.90;;;;;;4978911;28;20378;-75
2022/01/03 03:18:31;;;;;;;24.73;8.02;;;8.10;99.90;;;;;;4979577;28;20232;-75
2022/01/03 03:20:58;;;;;;;20.23;7.13;;;8.10;99.90;;;;;;4979761;28;20066;-74
2022/01/03 03:23:27;;;;;;;22.15;7.82;;;8.10;99.90;;;;;;4981851;28;20057;-75
2022/01/03 03:25:54;;;;;;;21.15;7.45;;;8.10;99.90;;;;;;4963465;28;20069;-74
2022/01/03 03:28:25;;;;;;;26.48;7.32;;;8.20;99.90;;;;;;4979766;28;20050;-74
2022/01/03 03:30:55;;;;;;;25.08;7.80;;;8.10;99.90;;;;;;4964568;28;20483;-75
2022/01/03 03:33:32;;;;;;;25.63;6.90;;;8.10;99.90;;;;;;4996380;28;20050;-74
2022/01/03 03:36:01;;;;;;;26.90;6.93;;;8.20;99.90;;;;;;4980229;28;20482;-75
2022/01/03 03:38:29;;;;;;;32.78;8.43;;;8.10;99.90;;;;;;4980526;28;20790;-74
2022/01/03 03:41:01;;;;;;;24.88;6.88;;;8.00;99.90;;;;;;4979402;28;20046;-74
2022/01/03 03:43:32;;;;;;;25.13;8.55;;;7.90;99.90;;;;;;4995896;28;20058;-74
2022/01/03 03:46:02;;;;;;;26.20;7.63;;;7.90;99.90;;;;;;4990242;28;20069;-74
2022/01/03 03:48:31;;;;;;;25.35;7.78;;;7.90;99.90;;;;;;5000038;28;20462;-74
2022/01/03 03:50:59;;;;;;;26.02;4.85;;;7.90;99.90;;;;;;4968308;28;20133;-74
2022/01/03 03:53:26;;;;;;;24.60;6.28;;;7.90;99.90;;;;;;4999382;28;20136;-74
2022/01/03 03:55:54;;;;;;;20.38;6.10;;;7.90;99.90;;;;;;4983545;28;20455;-74
2022/01/03 03:58:23;;;;;;;48.15;7.32;;;8.00;99.90;;;;;;4998355;28;20112;-75
2022/01/03 04:00:50;;;;;;;27.58;6.93;;;8.00;99.90;;;;;;4983052;28;20084;-75
2022/01/03 04:03:36;;;;;;;36.78;6.88;;;8.10;99.90;;;;;;4996975;28;20096;-74
2022/01/03 04:06:03;;;;;;;26.15;7.07;;;8.00;99.90;;;;;;4983731;28;20335;-75
2022/01/03 04:08:31;;;;;;;16.00;4.55;;;8.00;99.90;;;;;;4983677;28;20052;-75
2022/01/03 04:10:59;;;;;;;20.27;6.32;;;8.00;99.90;;;;;;4982995;28;20049;-75
2022/01/03 04:13:26;;;;;;;26.13;6.63;;;8.00;99.90;;;;;;4984249;28;20149;-75
2022/01/03 04:15:53;;;;;;;20.85;6.63;;;7.90;99.90;;;;;;4964993;28;20521;-75
2022/01/03 04:18:19;;;;;;;26.45;7.03;;;7.90;99.90;;;;;;4998864;28;20058;-75
2022/01/03 04:20:46;;;;;;;25.33;5.97;;;8.00;99.90;;;;;;4966183;28;20178;-75
2022/01/03 04:23:15;;;;;;;31.90;6.80;;;8.00;99.90;;;;;;4997978;28;20129;-75
2022/01/03 04:25:42;;;;;;;24.20;6.25;;;7.90;99.90;;;;;;4982495;28;20046;-75
2022/01/03 04:28:09;;;;;;;18.20;4.70;;;7.90;99.90;;;;;;4966819;28;20050;-75
2022/01/03 04:30:36;;;;;;;19.65;6.30;;;7.90;99.90;;;;;;4974567;28;20069;-74
2022/01/03 04:33:03;;;;;;;18.38;4.90;;;8.00;99.90;;;;;;4984533;28;20043;-75
2022/01/03 04:35:30;;;;;;;20.02;5.93;;;8.00;99.90;;;;;;4984234;28;20161;-76
2022/01/03 04:37:57;;;;;;;25.45;6.00;;;8.10;99.90;;;;;;4982728;28;20050;-75
2022/01/03 04:40:24;;;;;;;24.35;5.32;;;8.00;99.90;;;;;;4983152;28;20061;-76
2022/01/03 04:42:51;;;;;;;25.42;5.20;;;8.00;99.90;;;;;;4983554;28;20192;-75
2022/01/03 04:45:18;;;;;;;17.58;5.97;;;8.00;99.90;;;;;;4982599;28;20149;-75
2022/01/03 04:47:45;;;;;;;24.48;4.78;;;7.90;99.90;;;;;;4982002;28;20530;-75
2022/01/03 04:50:12;;;;;;;20.75;5.60;;;7.90;99.90;;;;;;4998868;28;20058;-75
2022/01/03 04:52:38;;;;;;;28.55;6.45;;;7.90;99.90;;;;;;4982966;28;20057;-75
2022/01/03 04:55:06;;;;;;;23.10;5.78;;;7.90;99.90;;;;;;4981383;28;20053;-75
2022/01/03 04:57:33;;;;;;;17.65;6.00;;;7.90;99.90;;;;;;4981321;28;20061;-76
2022/01/03 05:00:01;;;;;;;24.17;5.68;;;7.80;99.90;;;;;;4982822;28;20061;-75
2022/01/03 05:02:29;;;;;;;19.05;6.22;;;7.80;99.90;;;;;;4982809;28;20058;-76
2022/01/03 05:04:58;;;;;;;38.83;5.53;;;7.80;99.90;;;;;;4999389;28;20084;-75
2022/01/03 05:07:26;;;;;;;25.48;6.28;;;7.90;99.90;;;;;;4981426;28;20055;-75
2022/01/03 05:09:53;;;;;;;26.05;6.55;;;7.90;99.90;;;;;;4966723;28;20093;-75
2022/01/03 05:12:20;;;;;;;20.02;5.60;;;7.90;99.90;;;;;;4980876;28;20177;-75
2022/01/03 05:14:47;;;;;;;18.80;5.55;;;7.90;99.90;;;;;;4964237;28;20257;-76
2022/01/03 05:17:15;;;;;;;23.05;5.45;;;7.80;99.90;;;;;;4971074;28;20329;-75
2022/01/03 05:19:42;;;;;;;21.38;4.88;;;7.80;99.90;;;;;;4966122;28;20061;-75
2022/01/03 05:22:10;;;;;;;28.80;6.28;;;7.90;99.90;;;;;;4981584;28;20054;-75
2022/01/03 05:24:37;;;;;;;29.63;5.60;;;7.90;99.90;;;;;;4982410;28;20121;-76
2022/01/03 05:27:05;;;;;;;23.70;5.63;;;7.90;99.90;;;;;;4964647;28;20073;-76
2022/01/03 05:29:34;;;;;;;28.02;6.05;;;7.90;99.90;;;;;;4982103;28;20053;-75
2022/01/03 05:32:02;;;;;;;25.92;5.43;;;7.80;99.90;;;;;;4997796;28;20066;-75
2022/01/03 05:34:29;;;;;;;20.70;4.57;;;7.90;99.90;;;;;;4992665;28;20046;-76
2022/01/03 05:36:56;;;;;;;19.45;5.15;;;7.80;99.90;;;;;;4980278;28;20569;-75
2022/01/03 05:39:23;;;;;;;19.20;5.45;;;7.90;99.90;;;;;;4997320;28;20062;-76
2022/01/03 05:41:49;;;;;;;22.60;6.93;;;7.90;99.90;;;;;;4980987;28;20058;-76
2022/01/03 05:44:16;;;;;;;18.63;4.32;;;7.90;99.90;;;;;;4980583;28;20251;-76
2022/01/03 05:46:44;;;;;;;16.20;4.20;;;8.00;99.90;;;;;;4963813;28;20442;-76
2022/01/03 05:49:11;;;;;;;14.60;4.10;;;8.00;99.90;;;;;;4980831;28;20149;-76
2022/01/03 05:51:38;;;;;;;19.33;4.18;;;7.90;99.90;;;;;;4981102;28;20053;-76
2022/01/03 05:54:05;;;;;;;28.60;4.25;;;7.90;99.90;;;;;;4965556;28;20043;-76
2022/01/03 05:56:32;;;;;;;14.52;4.15;;;7.90;99.90;;;;;;4980393;28;20353;-76
2022/01/03 05:58:59;;;;;;;17.80;4.38;;;7.90;99.90;;;;;;4977588;28;20522;-76
2022/01/03 06:01:27;;;;;;;15.52;4.47;;;7.90;99.90;;;;;;4976945;28;20062;-76
2022/01/03 06:04:01;;;;;;;25.60;4.65;;;8.00;99.90;;;;;;4974429;28;20058;-76
2022/01/03 06:06:53;;;;;;;17.73;5.38;;;7.90;99.90;;;;;;4996336;28;20116;-76
2022/01/03 06:09:19;;;;;;;19.27;4.68;;;7.90;99.90;;;;;;4979614;28;20050;-76
2022/01/03 06:11:46;;;;;;;28.13;5.82;;;7.90;99.90;;;;;;4957686;23;20073;-73
2022/01/03 06:14:16;;;;;;;17.85;4.25;;;8.00;99.90;;;;;;4987987;28;20637;-74
2022/01/03 06:16:46;;;;;;;20.20;5.10;;;8.00;99.90;;;;;;4977646;28;20611;-73
2022/01/03 06:19:13;;;;;;;25.63;4.32;;;8.00;99.90;;;;;;4974635;28;20046;-73
2022/01/03 06:21:41;;;;;;;28.35;5.97;;;8.10;99.90;;;;;;4990947;28;20427;-74
2022/01/03 06:24:12;;;;;;;21.92;5.68;;;8.10;99.90;;;;;;4976794;28;20051;-73
2022/01/03 06:26:42;;;;;;;24.35;4.53;;;8.10;99.90;;;;;;4960503;28;20059;-74
2022/01/03 06:29:11;;;;;;;18.55;5.47;;;8.10;99.90;;;;;;4961269;28;20043;-74
2022/01/03 06:31:38;;;;;;;21.02;4.97;;;8.20;99.90;;;;;;4944597;28;20533;-74
2022/01/03 06:34:05;;;;;;;17.98;4.47;;;8.20;99.90;;;;;;4974749;28;20073;-73
2022/01/03 06:36:33;;;;;;;22.58;5.30;;;8.20;99.90;;;;;;4958329;28;20138;-73
2022/01/03 06:39:06;;;;;;;19.58;5.47;;;8.20;99.90;;;;;;4942639;29;20423;-74
2022/01/03 06:41:33;;;;;;;23.67;5.70;;;8.10;99.90;;;;;;4974016;28;20043;-74
2022/01/03 06:44:00;;;;;;;24.70;5.60;;;8.20;99.90;;;;;;4978141;28;20042;-74
2022/01/03 06:46:27;;;;;;;20.55;4.63;;;8.20;99.90;;;;;;4963958;28;20365;-74
2022/01/03 06:48:54;;;;;;;17.80;4.60;;;8.20;99.90;;;;;;4973817;28;20158;-74
2022/01/03 06:51:21;;;;;;;20.00;5.18;;;8.20;99.90;;;;;;4974966;28;20050;-75
2022/01/03 06:53:48;;;;;;;20.58;6.60;;;8.30;99.90;;;;;;4977194;28;20050;-74
2022/01/03 06:56:15;;;;;;;16.52;4.63;;;8.20;99.90;;;;;;4960178;28;20047;-73
2022/01/03 06:58:42;;;;;;;23.13;5.22;;;8.30;99.90;;;;;;4960543;28;20130;-75
2022/01/03 07:01:10;;;;;;;22.67;5.38;;;8.20;99.90;;;;;;4973655;28;20401;-74
2022/01/03 07:03:36;;;;;;;21.98;4.85;;;8.20;99.90;;;;;;4965476;28;20570;-74
2022/01/03 07:06:03;;;;;;;25.73;5.20;;;8.20;99.90;;;;;;4946122;28;20447;-73
2022/01/03 07:08:30;;;;;;;16.35;4.95;;;8.30;99.90;;;;;;4957729;28;20043;-74
2022/01/03 07:10:57;;;;;;;23.95;5.10;;;8.30;99.90;;;;;;4962762;28;20047;-74
2022/01/03 07:13:29;;;;;;;26.02;5.45;;;8.30;99.90;;;;;;4961877;28;20047;-74
2022/01/03 07:18:56;;;;;;;22.60;5.47;;;8.30;99.90;;;;;;4957759;28;20046;-75
2022/01/03 07:21:28;;;;;;;20.65;5.60;;;8.30;99.90;;;;;;4971624;28;20043;-74
2022/01/03 07:23:55;;;;;;;13.65;4.25;;;8.40;99.90;;;;;;4966524;28;20503;-73
2022/01/03 07:26:24;;;;;;;16.50;4.85;;;8.30;99.90;;;;;;4958967;28;20053;-73
2022/01/03 07:28:50;;;;;;;24.25;5.03;;;8.30;99.90;;;;;;4961928;28;20527;-74
2022/01/03 07:31:17;;;;;;;13.77;4.68;;;8.30;99.90;;;;;;4957906;28;20039;-75
2022/01/03 07:33:47;;;;;;;21.65;6.63;;;8.30;99.90;;;;;;4954379;28;20458;-75
2022/01/03 07:36:14;;;;;;;15.65;5.30;;;8.40;99.90;;;;;;4956481;28;20101;-74
2022/01/03 07:38:46;;;;;;;25.55;4.95;;;8.30;99.90;;;;;;4959768;28;20105;-75
2022/01/03 07:41:15;;;;;;;21.27;5.90;;;8.40;99.90;;;;;;4960005;28;20051;-74
2022/01/03 07:43:44;;;;;;;14.82;5.30;;;8.40;99.90;;;;;;4962008;28;20639;-73
2022/01/03 07:46:11;;;;;;;16.80;6.10;;;8.40;99.90;;;;;;4954878;28;20097;-74
2022/01/03 07:48:41;;;;;;;19.80;4.63;;;8.40;99.90;;;;;;4959015;28;20051;-74
2022/01/03 07:51:08;;;;;;;21.52;5.30;;;8.40;99.90;;;;;;4960565;28;20105;-74
2022/01/03 07:53:35;;;;;;;15.57;5.63;;;8.40;99.90;;;;;;4964093;28;20042;-74
2022/01/03 07:56:04;;;;;;;13.18;5.10;;;8.40;99.90;;;;;;4981180;28;20371;-75
2022/01/03 07:58:32;;;;;;;12.80;4.45;;;8.40;99.90;;;;;;4994109;28;20140;-74
2022/01/03 08:00:58;;;;;;;18.23;4.68;;;8.40;99.90;;;;;;4981469;28;20145;-75
2022/01/03 08:03:25;;;;;;;23.20;5.88;;;8.40;99.90;;;;;;4972119;28;20562;-75
2022/01/03 08:06:07;;;;;;;12.55;4.75;;;8.40;99.90;;;;;;4957783;28;20569;-74
2022/01/03 08:08:35;;;;;;;17.38;5.63;;;8.40;99.90;;;;;;4961979;28;20138;-75
2022/01/03 08:11:03;;;;;;;17.65;5.18;;;8.50;99.90;;;;;;4976227;28;20581;-74
2022/01/03 08:13:29;;;;;;;13.10;4.93;;;8.50;99.90;;;;;;4961838;28;20043;-74
2022/01/03 08:15:56;;;;;;;24.23;4.97;;;8.50;99.90;;;;;;4958290;28;20542;-74
2022/01/03 08:18:23;;;;;;;19.70;5.65;;;8.50;99.90;;;;;;4953289;28;20055;-75
2022/01/03 08:20:52;;;;;;;14.82;4.90;;;8.50;99.90;;;;;;4960862;28;20610;-76
2022/01/03 08:23:19;;;;;;;14.00;5.28;;;8.50;99.90;;;;;;4976886;28;20223;-75
2022/01/03 08:25:46;;;;;;;23.17;5.03;;;8.50;99.90;;;;;;4959994;28;20062;-76
2022/01/03 08:28:14;;;;;;;20.92;5.05;;;8.50;99.90;;;;;;4959997;28;20138;-75
2022/01/03 08:30:41;;;;;;;23.50;5.57;;;8.60;99.90;;;;;;4962024;28;20459;-75
2022/01/03 08:33:08;;;;;;;13.48;4.43;;;8.60;99.90;;;;;;4962243;28;20082;-76
2022/01/03 08:35:35;;;;;;;23.13;5.80;;;8.50;99.90;;;;;;4963684;28;20531;-76
2022/01/03 08:38:04;;;;;;;18.73;6.72;;;8.50;99.90;;;;;;4965209;28;20108;-75
2022/01/03 08:40:32;;;;;;;18.52;5.47;;;8.50;99.90;;;;;;4979737;28;20675;-76
2022/01/03 08:43:00;;;;;;;13.77;4.65;;;8.50;99.90;;;;;;4965946;28;20643;-76
2022/01/03 08:45:26;;;;;;;17.83;4.75;;;8.50;99.90;;;;;;4980114;28;20200;-75
2022/01/03 08:47:53;;;;;;;18.88;5.30;;;8.50;99.90;;;;;;4961271;28;20127;-74
2022/01/03 08:50:20;;;;;;;17.45;4.78;;;8.50;99.90;;;;;;4977005;28;20038;-75
2022/01/03 08:52:48;;;;;;;22.27;7.10;;;8.50;99.90;;;;;;4963547;28;20051;-76
2022/01/03 08:55:15;;;;;;;26.27;6.78;;;8.50;99.90;;;;;;4977524;28;20058;-75
2022/01/03 08:57:42;;;;;;;18.08;6.22;;;8.60;99.90;;;;;;4973972;28;20074;-75
2022/01/03 09:00:10;;;;;;;17.33;5.15;;;8.60;99.90;;;;;;4963328;28;20054;-76
2022/01/03 09:02:37;;;;;;;16.85;5.05;;;8.60;99.90;;;;;;4956183;28;20121;-75
2022/01/03 09:05:04;;;;;;;20.15;6.40;;;8.60;99.90;;;;;;4977561;28;20063;-75
2022/01/03 09:07:31;;;;;;;14.13;4.63;;;8.70;99.90;;;;;;4979118;28;20463;-75
2022/01/03 09:09:57;;;;;;;21.08;5.57;;;8.70;99.90;;;;;;4947575;28;20122;-75
2022/01/03 09:12:24;;;;;;;18.02;4.85;;;8.70;99.90;;;;;;4975794;28;20184;-75
2022/01/03 09:14:51;;;;;;;18.70;4.88;;;8.70;99.90;;;;;;4948781;28;20484;-75
2022/01/03 09:17:17;;;;;;;15.43;4.85;;;8.70;99.90;;;;;;4961417;28;20309;-76
2022/01/03 09:19:44;;;;;;;21.35;5.07;;;8.70;99.90;;;;;;4963846;28;20506;-76
2022/01/03 09:22:21;;;;;;;15.40;4.22;;;8.80;99.90;;;;;;4962349;28;20596;-75
2022/01/03 09:28:48;;;;;;;18.88;5.32;;;8.80;99.90;;;;;;4963957;28;20082;-76
2022/01/03 09:30:21;;;;;;;;;;;8.80;99.90;;;;;;4978047;28;20074;-76
2022/01/03 09:32:48;;;;;;;13.93;4.93;;;8.90;99.90;;;;;;4977822;28;20212;-76
2022/01/03 09:35:15;;;;;;;16.50;4.35;;;8.90;99.90;;;;;;4977795;28;20186;-76
2022/01/03 09:37:42;;;;;;;23.23;5.10;;;8.90;99.90;;;;;;4962891;28;20530;-76
2022/01/03 09:40:09;;;;;;;14.10;4.88;;;8.90;99.90;;;;;;4964307;28;20519;-76
2022/01/03 09:42:36;;;;;;;17.35;4.65;;;8.90;99.90;;;;;;4963487;28;20055;-75
2022/01/03 09:45:08;;;;;;;13.48;6.45;;;8.90;99.90;;;;;;4962046;28;20063;-75
2022/01/03 09:47:40;;;;;;;20.30;6.07;;;8.80;99.90;;;;;;4968818;28;20073;-72
2022/01/03 09:50:07;;;;;;;21.65;5.10;;;8.70;99.90;;;;;;4959560;28;20145;-76
2022/01/03 09:52:36;;;;;;;23.73;5.47;;;8.50;99.90;;;;;;4978337;28;20566;-77
2022/01/03 09:55:03;;;;;;;11.52;4.82;;;8.40;99.90;;;;;;4961791;28;20113;-76
2022/01/03 09:57:30;;;;;;;19.63;6.10;;;8.30;99.90;;;;;;4963923;28;20589;-76
2022/01/03 09:59:59;;;;;;;27.45;5.75;;;8.30;99.90;;;;;;4962385;28;20117;-76
2022/01/03 10:02:27;;;;;;;20.38;5.45;;;8.30;99.90;;;;;;4978620;28;20054;-76
2022/01/03 10:04:54;;;;;;;18.45;5.28;;;8.30;99.90;;;;;;4975987;28;20271;-77
2022/01/03 10:07:22;;;;;;;16.30;4.00;;;8.30;99.90;;;;;;4977338;28;20121;-77
2022/01/03 10:09:49;;;;;;;15.48;4.55;;;8.30;99.90;;;;;;4962023;28;20061;-77
2022/01/03 10:12:17;;;;;;;16.63;5.03;;;8.30;99.90;;;;;;4977650;28;20078;-77
2022/01/03 10:14:44;;;;;;;8.82;3.53;;;8.30;99.90;;;;;;4963931;28;20227;-77
2022/01/03 10:17:11;;;;;;;12.80;4.05;;;8.30;99.90;;;;;;4961230;28;20051;-76
2022/01/03 10:19:54;;;;;;;13.75;3.25;;;8.30;99.90;;;;;;4950921;28;20154;-77
2022/01/03 10:22:23;;;;;;;15.88;4.95;;;8.30;99.90;;;;;;4951198;28;20137;-77
2022/01/03 10:24:50;;;;;;;19.70;5.10;;;8.30;99.90;;;;;;4964170;28;20148;-78
2022/01/03 10:27:18;;;;;;;11.55;5.22;;;8.20;99.90;;;;;;4978677;28;20055;-76
2022/01/03 10:29:56;;;;;;;21.65;4.70;;;8.20;99.90;;;;;;4979514;28;20484;-77
2022/01/03 10:32:30;;;;;;;22.90;5.55;;;8.10;99.90;;;;;;4962780;28;20073;-77
2022/01/03 10:35:11;;;;;;;19.98;4.97;;;8.10;99.90;;;;;;4964539;28;20070;-78
2022/01/03 10:37:38;;;;;;;21.13;6.00;;;8.10;99.90;;;;;;4943833;29;20051;-77
2022/01/03 10:40:29;;;;;;;33.67;9.73;;;8.10;99.90;;;;;;4945133;29;20055;-76
2022/01/03 10:43:12;;;;;;;22.60;7.38;;;8.10;99.90;;;;;;4984772;28;20059;-79
2022/01/03 10:45:39;;;;;;;25.05;6.45;;;8.00;99.90;;;;;;4956263;28;20105;-78
2022/01/03 10:48:33;;;;;;;39.42;7.82;;;8.10;99.90;;;;;;4978892;28;20260;-79
2022/01/03 10:51:02;;;;;;;12.77;3.72;;;7.90;99.90;;;;;;4986363;28;20046;-77
2022/01/03 10:53:43;;;;;;;13.43;3.88;;;7.40;99.90;;;;;;4985785;28;20474;-77
2022/01/03 10:56:36;;;;;;;12.27;3.80;;;7.20;99.90;;;;;;4967806;28;20058;-78
2022/01/03 10:59:21;;;;;;;13.88;4.80;;;7.10;99.90;;;;;;4982672;28;20055;-78
2022/01/03 11:02:11;;;;;;;13.00;5.50;;;7.20;99.90;;;;;;4964459;28;20050;-78
2022/01/03 11:04:51;;;;;;;19.70;5.78;;;7.20;99.90;;;;;;4965085;28;20551;-78
2022/01/03 11:13:07;;;;;;;28.05;10.20;;;7.50;99.90;;;;;;4966000;28;20519;-77
2022/01/03 11:15:36;;;;;;;36.60;11.27;;;7.50;99.90;;;;;;4964685;28;20089;-78
2022/01/03 11:18:21;;;;;;;39.15;11.63;;;7.60;99.90;;;;;;4961878;28;20113;-77
2022/01/03 11:21:01;;;;;;;34.90;10.25;;;7.60;99.90;;;;;;4964466;28;20047;-77
2022/01/03 11:23:31;;;;;;;31.63;9.60;;;7.70;99.90;;;;;;4961208;28;20538;-77
2022/01/03 11:26:09;;;;;;;27.90;9.13;;;7.80;99.90;;;;;;4962953;28;20035;-77
2022/01/03 11:28:36;;;;;;;33.45;9.60;;;7.80;99.90;;;;;;4960505;28;20498;-77
2022/01/03 11:31:03;;;;;;;25.80;8.73;;;7.80;99.90;;;;;;4959649;28;20050;-77
2022/01/03 11:33:31;;;;;;;22.88;7.43;;;7.90;99.90;;;;;;4961842;28;20081;-76
2022/01/03 11:36:20;;;;;;;22.98;7.97;;;8.00;99.90;;;;;;4960300;28;20112;-76
2022/01/03 11:38:48;;;;;;;29.75;8.98;;;8.00;99.90;;;;;;4964883;28;20257;-77
2022/01/03 11:41:16;;;;;;;27.33;9.40;;;8.10;99.90;;;;;;4982050;28;20051;-76
2022/01/03 11:43:44;;;;;;;23.02;7.28;;;8.10;99.90;;;;;;4946881;29;20051;-78
2022/01/03 11:46:11;;;;;;;28.00;8.80;;;8.20;99.90;;;;;;4950728;28;20059;-77
2022/01/03 11:48:38;;;;;;;25.52;8.88;;;8.20;99.90;;;;;;4979953;28;20141;-76
2022/01/03 11:51:08;;;;;;;20.88;7.30;;;8.20;99.90;;;;;;4948305;28;20381;-76
2022/01/03 11:53:40;;;;;;;22.05;7.68;;;8.30;99.90;;;;;;4959558;28;20585;-76
2022/01/03 11:56:16;;;;;;;23.77;7.40;;;8.30;99.90;;;;;;4957227;28;20106;-76
2022/01/03 11:59:21;;;;;;;27.35;7.95;;;8.40;99.90;;;;;;4942820;29;20527;-76
2022/01/03 12:04:58;;;;;;;22.67;7.25;;;8.50;99.90;;;;;;4958243;28;20078;-76
2022/01/03 12:07:24;;;;;;;24.67;6.75;;;8.50;99.90;;;;;;4964085;28;20210;-76
2022/01/03 12:09:53;;;;;;;21.15;5.47;;;8.50;99.90;;;;;;4966215;28;20043;-76
2022/01/03 12:12:35;;;;;;;17.63;5.95;;;8.60;99.90;;;;;;5000540;23;20050;-72
2022/01/03 12:15:04;;;;;;;15.60;5.10;;;8.60;99.90;;;;;;4947190;28;20062;-72
2022/01/03 12:17:42;;;;;;;23.15;6.28;;;8.60;99.90;;;;;;4973478;28;20085;-73
2022/01/03 12:20:09;;;;;;;19.20;6.18;;;8.60;99.90;;;;;;4983918;28;20085;-72
2022/01/03 12:22:50;;;;;;;14.70;5.30;;;8.60;99.90;;;;;;4965709;28;20388;-72
2022/01/03 12:25:25;;;;;;;20.17;6.57;;;8.70;99.90;;;;;;4965379;28;20073;-72
2022/01/03 12:27:57;;;;;;;22.02;6.63;;;8.70;99.90;;;;;;4965881;28;20090;-72
2022/01/03 12:30:32;;;;;;;22.48;6.55;;;8.70;99.90;;;;;;4963274;28;20078;-72
2022/01/03 12:33:05;;;;;;;;;;;8.80;99.90;;;;;;4963291;28;20355;-73
2022/01/03 12:35:34;;;;;;;18.13;6.63;;;8.80;99.90;;;;;;4962585;28;19925;-73
2022/01/03 12:38:04;;;;;;;16.63;5.95;;;8.90;99.90;;;;;;4976989;28;20549;-72
2022/01/03 12:40:43;;;;;;;24.63;6.63;;;8.90;99.90;;;;;;4977157;28;20391;-73
2022/01/03 12:43:16;;;;;;;20.65;7.45;;;9.00;99.90;;;;;;4973998;28;20090;-72
2022/01/03 12:45:43;;;;;;;16.60;5.97;;;9.00;99.90;;;;;;4976292;28;20406;-73
2022/01/03 12:48:10;;;;;;;22.42;5.63;;;9.10;99.90;;;;;;4982443;28;20423;-73
2022/01/03 12:50:52;;;;;;;19.52;5.70;;;9.00;99.90;;;;;;5001425;28;20050;-73
2022/01/03 12:53:28;;;;;;;23.52;5.97;;;9.00;99.90;;;;;;5030064;28;20538;-75
2022/01/03 12:56:05;;;;;;;13.45;5.30;;;9.00;99.90;;;;;;4974087;28;20063;-73
2022/01/03 12:58:32;;;;;;;14.93;5.20;;;9.00;99.90;;;;;;4975214;28;20117;-72
2022/01/03 13:01:02;;;;;;;12.82;4.40;;;9.00;99.90;;;;;;4961143;28;20046;-72
2022/01/03 13:03:37;;;;;;;17.45;5.88;;;9.00;99.90;;;;;;4991586;28;20050;-72
2022/01/03 13:06:13;;;;;;;18.33;6.00;;;9.00;99.90;;;;;;4975986;28;20056;-72
2022/01/03 13:09:10;;;;;;;10.20;4.78;;;9.00;99.90;;;;;;4962480;28;20507;-72
2022/01/03 13:11:45;;;;;;;12.43;4.43;;;9.00;99.90;;;;;;4977870;28;20556;-73
2022/01/03 13:14:15;;;;;;;14.90;4.55;;;9.00;99.90;;;;;;4977808;28;20157;-72
2022/01/03 13:16:47;;;;;;;18.67;5.07;;;9.00;99.90;;;;;;4973811;28;20108;-72
2022/01/03 13:19:16;;;;;;;15.20;5.07;;;9.10;99.90;;;;;;4972373;28;20194;-72